Terminal Aerodrome Forecast
Issued by NWS

Home | Current Version | Previous Version | Text Only | Print | Product List | Glossary On
Versions: 1 2 3 4 5 6 7 8 9 10 11 12 13 14 15 16 17 18 19 20 21 22 23 24 25 26 27 28 29 30 31 32 33 34 35 36 37 38
000
FTUS45 KLKN 212331
TAFTPH
TAF
KTPH 212331Z 2200/2224 22025G35KT P6SM SCT050
     FM220200 24012KT P6SM FEW080
     FM220400 VRB06KT P6SM SCT080
     FM221800 35015G25KT P6SM SCT060
     FM222000 33025G35KT P6SM SCT060=

USA.gov is the U.S. government's official web portal to all federal, state and local government web resources and services.